sensor_id;sensor_type;location;lat;lon;timestamp;P1;durP1;ratioP1;P2;durP2;ratioP2
13687;SDS011;6916;51.504;7.416;2023-05-07T00:09:50;10.30;;;9.23;;
13687;SDS011;6916;51.504;7.416;2023-05-07T00:19:52;9.57;;;8.77;;
13687;SDS011;6916;51.504;7.416;2023-05-07T00:29:54;8.98;;;7.82;;
13687;SDS011;6916;51.504;7.416;2023-05-07T00:39:57;10.18;;;9.07;;
13687;SDS011;6916;51.504;7.416;2023-05-07T00:49:59;13.55;;;10.07;;
13687;SDS011;6916;51.504;7.416;2023-05-07T01:00:01;16.47;;;8.57;;
13687;SDS011;6916;51.504;7.416;2023-05-07T01:10:05;10.57;;;9.45;;
13687;SDS011;6916;51.504;7.416;2023-05-07T01:20:08;12.40;;;9.68;;
13687;SDS011;6916;51.504;7.416;2023-05-07T01:30:12;12.90;;;11.60;;
13687;SDS011;6916;51.504;7.416;2023-05-07T01:40:15;13.48;;;12.18;;
13687;SDS011;6916;51.504;7.416;2023-05-07T01:50:18;13.90;;;12.55;;
13687;SDS011;6916;51.504;7.416;2023-05-07T02:00:21;17.42;;;15.30;;
13687;SDS011;6916;51.504;7.416;2023-05-07T02:10:23;25.20;;;22.73;;
13687;SDS011;6916;51.504;7.416;2023-05-07T02:20:26;36.38;;;32.60;;
13687;SDS011;6916;51.504;7.416;2023-05-07T02:30:28;33.38;;;30.00;;
13687;SDS011;6916;51.504;7.416;2023-05-07T02:40:32;28.93;;;25.93;;
13687;SDS011;6916;51.504;7.416;2023-05-07T02:50:40;22.00;;;19.75;;
13687;SDS011;6916;51.504;7.416;2023-05-07T03:00:43;16.05;;;14.35;;
13687;SDS011;6916;51.504;7.416;2023-05-07T03:10:55;13.13;;;11.82;;
13687;SDS011;6916;51.504;7.416;2023-05-07T03:20:57;15.40;;;11.10;;
13687;SDS011;6916;51.504;7.416;2023-05-07T03:31:00;13.88;;;11.35;;
13687;SDS011;6916;51.504;7.416;2023-05-07T03:41:04;13.95;;;11.77;;
13687;SDS011;6916;51.504;7.416;2023-05-07T03:51:07;12.00;;;10.73;;
13687;SDS011;6916;51.504;7.416;2023-05-07T04:01:09;13.88;;;11.35;;
13687;SDS011;6916;51.504;7.416;2023-05-07T04:11:11;12.00;;;10.90;;
13687;SDS011;6916;51.504;7.416;2023-05-07T04:21:17;15.27;;;10.68;;
13687;SDS011;6916;51.504;7.416;2023-05-07T04:31:21;10.75;;;9.65;;
13687;SDS011;6916;51.504;7.416;2023-05-07T04:41:27;10.07;;;9.18;;
13687;SDS011;6916;51.504;7.416;2023-05-07T04:51:30;16.90;;;9.25;;
13687;SDS011;6916;51.504;7.416;2023-05-07T05:01:35;10.07;;;9.07;;
13687;SDS011;6916;51.504;7.416;2023-05-07T05:11:38;8.32;;;7.63;;
13687;SDS011;6916;51.504;7.416;2023-05-07T05:21:40;8.35;;;7.55;;
13687;SDS011;6916;51.504;7.416;2023-05-07T05:31:44;8.75;;;7.80;;
13687;SDS011;6916;51.504;7.416;2023-05-07T05:41:46;8.27;;;7.47;;
13687;SDS011;6916;51.504;7.416;2023-05-07T05:51:48;8.65;;;7.10;;
13687;SDS011;6916;51.504;7.416;2023-05-07T06:01:51;6.80;;;6.10;;
13687;SDS011;6916;51.504;7.416;2023-05-07T06:11:54;6.82;;;5.93;;
13687;SDS011;6916;51.504;7.416;2023-05-07T06:21:56;6.65;;;4.63;;
13687;SDS011;6916;51.504;7.416;2023-05-07T06:32:10;7.78;;;4.78;;
13687;SDS011;6916;51.504;7.416;2023-05-07T06:42:15;4.82;;;3.38;;
13687;SDS011;6916;51.504;7.416;2023-05-07T06:52:20;6.15;;;3.33;;
13687;SDS011;6916;51.504;7.416;2023-05-07T07:02:25;4.00;;;3.70;;
13687;SDS011;6916;51.504;7.416;2023-05-07T07:12:27;4.32;;;3.95;;
13687;SDS011;6916;51.504;7.416;2023-05-07T07:22:30;5.15;;;4.38;;
13687;SDS011;6916;51.504;7.416;2023-05-07T07:32:33;5.55;;;4.68;;
13687;SDS011;6916;51.504;7.416;2023-05-07T07:42:36;6.28;;;4.78;;
13687;SDS011;6916;51.504;7.416;2023-05-07T07:52:38;5.75;;;4.65;;
13687;SDS011;6916;51.504;7.416;2023-05-07T08:02:42;5.13;;;4.72;;
13687;SDS011;6916;51.504;7.416;2023-05-07T08:12:48;6.15;;;4.40;;
13687;SDS011;6916;51.504;7.416;2023-05-07T08:22:51;5.18;;;4.40;;
13687;SDS011;6916;51.504;7.416;2023-05-07T08:32:54;7.50;;;6.05;;
13687;SDS011;6916;51.504;7.416;2023-05-07T08:42:56;7.05;;;5.93;;
13687;SDS011;6916;51.504;7.416;2023-05-07T08:52:59;13.52;;;9.05;;
13687;SDS011;6916;51.504;7.416;2023-05-07T09:03:03;9.13;;;8.23;;
13687;SDS011;6916;51.504;7.416;2023-05-07T09:13:06;10.10;;;7.88;;
13687;SDS011;6916;51.504;7.416;2023-05-07T09:23:09;9.32;;;7.43;;
13687;SDS011;6916;51.504;7.416;2023-05-07T09:33:12;10.07;;;7.35;;
13687;SDS011;6916;51.504;7.416;2023-05-07T09:43:18;9.13;;;8.20;;
13687;SDS011;6916;51.504;7.416;2023-05-07T09:53:29;7.88;;;6.63;;
13687;SDS011;6916;51.504;7.416;2023-05-07T10:03:37;8.38;;;6.90;;
13687;SDS011;6916;51.504;7.416;2023-05-07T10:13:42;8.40;;;7.60;;
13687;SDS011;6916;51.504;7.416;2023-05-07T10:23:48;8.50;;;7.65;;
13687;SDS011;6916;51.504;7.416;2023-05-07T10:33:53;7.85;;;5.78;;
13687;SDS011;6916;51.504;7.416;2023-05-07T10:43:57;8.23;;;7.43;;
13687;SDS011;6916;51.504;7.416;2023-05-07T11:04:18;5.15;;;4.55;;
13687;SDS011;6916;51.504;7.416;2023-05-07T11:14:46;7.18;;;5.70;;
13687;SDS011;6916;51.504;7.416;2023-05-07T11:24:53;5.55;;;4.85;;
13687;SDS011;6916;51.504;7.416;2023-05-07T11:34:57;6.45;;;5.85;;
13687;SDS011;6916;51.504;7.416;2023-05-07T11:45:02;8.32;;;7.38;;
13687;SDS011;6916;51.504;7.416;2023-05-07T11:55:04;9.90;;;8.07;;
13687;SDS011;6916;51.504;7.416;2023-05-07T12:05:06;9.27;;;8.10;;
13687;SDS011;6916;51.504;7.416;2023-05-07T12:15:09;7.43;;;6.68;;
13687;SDS011;6916;51.504;7.416;2023-05-07T12:25:12;6.38;;;5.30;;
13687;SDS011;6916;51.504;7.416;2023-05-07T12:35:30;6.53;;;5.55;;
13687;SDS011;6916;51.504;7.416;2023-05-07T12:45:37;5.82;;;5.32;;
13687;SDS011;6916;51.504;7.416;2023-05-07T12:55:41;6.00;;;5.43;;
13687;SDS011;6916;51.504;7.416;2023-05-07T13:05:47;5.30;;;4.80;;
13687;SDS011;6916;51.504;7.416;2023-05-07T13:15:49;6.80;;;5.22;;
13687;SDS011;6916;51.504;7.416;2023-05-07T13:25:52;6.20;;;5.60;;
13687;SDS011;6916;51.504;7.416;2023-05-07T13:35:57;6.55;;;5.95;;
13687;SDS011;6916;51.504;7.416;2023-05-07T13:46:02;5.03;;;4.53;;
13687;SDS011;6916;51.504;7.416;2023-05-07T13:56:04;5.55;;;4.70;;
13687;SDS011;6916;51.504;7.416;2023-05-07T14:06:06;5.82;;;4.32;;
13687;SDS011;6916;51.504;7.416;2023-05-07T14:16:08;5.25;;;4.22;;
13687;SDS011;6916;51.504;7.416;2023-05-07T14:26:11;8.02;;;6.18;;
13687;SDS011;6916;51.504;7.416;2023-05-07T14:36:13;7.20;;;6.47;;
13687;SDS011;6916;51.504;7.416;2023-05-07T14:46:17;11.77;;;6.43;;
13687;SDS011;6916;51.504;7.416;2023-05-07T14:56:19;8.35;;;6.03;;
13687;SDS011;6916;51.504;7.416;2023-05-07T15:06:22;6.80;;;6.10;;
13687;SDS011;6916;51.504;7.416;2023-05-07T15:16:25;6.63;;;4.13;;
13687;SDS011;6916;51.504;7.416;2023-05-07T15:26:27;7.05;;;3.90;;
13687;SDS011;6916;51.504;7.416;2023-05-07T15:36:29;3.20;;;2.90;;
13687;SDS011;6916;51.504;7.416;2023-05-07T15:46:32;4.43;;;2.70;;
13687;SDS011;6916;51.504;7.416;2023-05-07T15:56:34;3.97;;;2.50;;
13687;SDS011;6916;51.504;7.416;2023-05-07T16:06:36;4.32;;;3.60;;
13687;SDS011;6916;51.504;7.416;2023-05-07T16:16:38;2.90;;;2.55;;
13687;SDS011;6916;51.504;7.416;2023-05-07T16:26:42;4.22;;;2.65;;
13687;SDS011;6916;51.504;7.416;2023-05-07T16:36:44;3.22;;;2.90;;
13687;SDS011;6916;51.504;7.416;2023-05-07T16:46:46;3.45;;;2.42;;
13687;SDS011;6916;51.504;7.416;2023-05-07T16:56:49;3.63;;;2.08;;
13687;SDS011;6916;51.504;7.416;2023-05-07T17:06:51;2.58;;;2.10;;
13687;SDS011;6916;51.504;7.416;2023-05-07T17:16:54;2.85;;;1.48;;
13687;SDS011;6916;51.504;7.416;2023-05-07T17:26:56;2.80;;;1.70;;
13687;SDS011;6916;51.504;7.416;2023-05-07T17:36:58;2.22;;;1.90;;
13687;SDS011;6916;51.504;7.416;2023-05-07T17:47:01;1.73;;;1.63;;
13687;SDS011;6916;51.504;7.416;2023-05-07T17:57:04;3.58;;;1.77;;
13687;SDS011;6916;51.504;7.416;2023-05-07T18:07:07;52.35;;;41.92;;
13687;SDS011;6916;51.504;7.416;2023-05-07T18:17:09;2.05;;;1.80;;
13687;SDS011;6916;51.504;7.416;2023-05-07T18:27:11;4.03;;;1.70;;
13687;SDS011;6916;51.504;7.416;2023-05-07T18:37:14;2.75;;;2.42;;
13687;SDS011;6916;51.504;7.416;2023-05-07T18:47:17;3.03;;;2.45;;
13687;SDS011;6916;51.504;7.416;2023-05-07T18:57:19;5.05;;;3.80;;
13687;SDS011;6916;51.504;7.416;2023-05-07T19:07:21;5.00;;;4.00;;
13687;SDS011;6916;51.504;7.416;2023-05-07T19:17:23;7.57;;;5.00;;
13687;SDS011;6916;51.504;7.416;2023-05-07T19:27:25;7.80;;;7.00;;
13687;SDS011;6916;51.504;7.416;2023-05-07T19:37:28;9.85;;;8.80;;
13687;SDS011;6916;51.504;7.416;2023-05-07T19:47:31;10.68;;;9.57;;
13687;SDS011;6916;51.504;7.416;2023-05-07T19:57:33;11.80;;;10.45;;
13687;SDS011;6916;51.504;7.416;2023-05-07T20:07:35;13.43;;;12.02;;
13687;SDS011;6916;51.504;7.416;2023-05-07T20:17:37;15.07;;;12.65;;
13687;SDS011;6916;51.504;7.416;2023-05-07T20:27:40;13.50;;;12.00;;
13687;SDS011;6916;51.504;7.416;2023-05-07T20:37:42;16.35;;;12.95;;
13687;SDS011;6916;51.504;7.416;2023-05-07T20:47:44;14.00;;;12.57;;
13687;SDS011;6916;51.504;7.416;2023-05-07T20:57:46;14.95;;;13.40;;
13687;SDS011;6916;51.504;7.416;2023-05-07T21:07:48;14.65;;;13.15;;
13687;SDS011;6916;51.504;7.416;2023-05-07T21:17:51;15.75;;;14.02;;
13687;SDS011;6916;51.504;7.416;2023-05-07T21:27:56;14.18;;;12.68;;
13687;SDS011;6916;51.504;7.416;2023-05-07T21:37:58;17.13;;;13.98;;
13687;SDS011;6916;51.504;7.416;2023-05-07T21:48:01;15.20;;;13.60;;
13687;SDS011;6916;51.504;7.416;2023-05-07T21:58:03;15.82;;;14.30;;
13687;SDS011;6916;51.504;7.416;2023-05-07T22:08:07;16.48;;;14.80;;
13687;SDS011;6916;51.504;7.416;2023-05-07T22:18:09;16.88;;;14.95;;
13687;SDS011;6916;51.504;7.416;2023-05-07T22:28:11;16.38;;;14.68;;
13687;SDS011;6916;51.504;7.416;2023-05-07T22:38:14;16.50;;;14.75;;
13687;SDS011;6916;51.504;7.416;2023-05-07T22:48:16;17.03;;;15.23;;
13687;SDS011;6916;51.504;7.416;2023-05-07T22:58:18;17.08;;;15.38;;
13687;SDS011;6916;51.504;7.416;2023-05-07T23:08:20;17.35;;;15.23;;
13687;SDS011;6916;51.504;7.416;2023-05-07T23:18:22;18.85;;;16.15;;
13687;SDS011;6916;51.504;7.416;2023-05-07T23:28:24;17.02;;;14.77;;
13687;SDS011;6916;51.504;7.416;2023-05-07T23:38:26;17.13;;;15.38;;
13687;SDS011;6916;51.504;7.416;2023-05-07T23:48:28;17.42;;;15.73;;
13687;SDS011;6916;51.504;7.416;2023-05-07T23:58:30;17.75;;;15.82;;
